Terminal Aerodrome Forecast
Issued by NWS

Home | Current Version | Previous Version | Text Only | Print | Product List | Glossary On
Versions: 1 2 3 4 5 6 7 8 9 10 11 12 13
000
FTUS41 KRNK 192320
TAFBCB
TAF
KBCB 192320Z 2000/2024 09008KT P6SM SCT050 BKN200
     FM200100 08006KT P6SM SCT040 OVC120
     FM201400 09008KT P6SM BKN250=

USA.gov is the U.S. government's official web portal to all federal, state and local government web resources and services.